Time,TemperatureF,DewpointF,PressureIn,WindDirection,WindDirectionDegrees,WindSpeedMPH,WindSpeedGustMPH,Humidity,HourlyPrecipIn,Conditions,Clouds,dailyrainin,SoftwareType,DateUTC
2013-01-21 00:01:00,53.4,43.1,29.81,West,270,0.0,2.0,68,0.00,,,0.00,WUHU21623XXSP,2013-01-21 06:01:00,
2013-01-21 00:18:00,53.4,43.5,29.80,SSW,202,2.0,2.0,69,0.00,,,0.00,WUHU21623XXSP,2013-01-21 06:18:00,
2013-01-21 00:23:00,53.4,43.5,29.80,WSW,247,0.0,2.0,69,0.00,,,0.00,WUHU21623XXSP,2013-01-21 06:23:00,
2013-01-21 00:28:00,53.2,43.7,29.80,WSW,247,2.2,2.2,70,0.00,,,0.00,WUHU21623XXSP,2013-01-21 06:28:00,
2013-01-21 00:33:00,53.2,43.7,29.80,WSW,247,0.9,2.9,70,0.00,,,0.00,WUHU21623XXSP,2013-01-21 06:33:00,
2013-01-21 00:38:00,53.2,43.7,29.80,SW,225,1.6,2.9,70,0.00,,,0.00,WUHU21623XXSP,2013-01-21 06:38:00,
2013-01-21 00:43:00,53.2,43.7,29.80,SW,225,1.6,2.2,70,0.00,,,0.00,WUHU21623XXSP,2013-01-21 06:43:00,
2013-01-21 00:48:00,53.2,43.7,29.80,South,180,1.6,2.2,70,0.00,,,0.00,WUHU21623XXSP,2013-01-21 06:48:00,
2013-01-21 00:53:00,53.1,43.6,29.80,ESE,112,0.0,1.6,70,0.00,,,0.00,WUHU21623XXSP,2013-01-21 06:53:00,
2013-01-21 00:58:00,52.7,43.3,29.80,NE,45,0.0,0.7,70,0.00,,,0.00,WUHU21623XXSP,2013-01-21 06:58:00,
2013-01-21 01:03:00,52.7,43.3,29.80,North,0,0.0,0.7,70,0.00,,,0.00,WUHU21623XXSP,2013-01-21 07:03:00,
2013-01-21 01:08:00,52.5,43.1,29.81,NNW,337,0.0,0.0,70,0.00,,,0.00,WUHU21623XXSP,2013-01-21 07:08:00,
2013-01-21 01:13:00,52.3,42.9,29.81,WNW,292,0.0,0.0,70,0.00,,,0.00,WUHU21623XXSP,2013-01-21 07:13:00,
2013-01-21 01:18:00,52.3,43.3,29.81,SSE,157,0.0,0.0,71,0.00,,,0.00,WUHU21623XXSP,2013-01-21 07:18:00,
2013-01-21 01:23:00,52.0,42.9,29.81,East,90,0.0,0.0,71,0.00,,,0.00,WUHU21623XXSP,2013-01-21 07:23:00,
2013-01-21 01:28:00,52.0,42.9,29.81,WSW,247,0.0,0.7,71,0.00,,,0.00,WUHU21623XXSP,2013-01-21 07:28:00,
2013-01-21 01:33:00,52.0,43.3,29.81,SW,225,5.1,5.4,72,0.00,,,0.00,WUHU21623XXSP,2013-01-21 07:33:00,
2013-01-21 01:38:00,52.0,43.3,29.80,SW,225,5.1,5.4,72,0.00,,,0.00,WUHU21623XXSP,2013-01-21 07:38:00,
2013-01-21 01:43:00,52.2,43.8,29.81,SW,225,7.2,7.2,73,0.00,,,0.00,WUHU21623XXSP,2013-01-21 07:43:00,
2013-01-21 01:48:00,52.2,43.8,29.81,SW,225,3.8,7.2,73,0.00,,,0.00,WUHU21623XXSP,2013-01-21 07:48:00,
2013-01-21 01:53:00,52.3,44.0,29.81,SW,225,4.5,4.5,73,0.00,,,0.00,WUHU21623XXSP,2013-01-21 07:53:00,
2013-01-21 01:58:00,52.3,44.0,29.81,SW,225,2.5,4.5,73,0.00,,,0.00,WUHU21623XXSP,2013-01-21 07:58:00,
2013-01-21 02:03:00,52.3,44.0,29.82,SSW,202,6.3,6.3,73,0.00,,,0.00,WUHU21623XXSP,2013-01-21 08:03:00,
2013-01-21 02:08:00,52.5,44.1,29.82,SW,225,4.5,6.3,73,0.00,,,0.00,WUHU21623XXSP,2013-01-21 08:08:00,
2013-01-21 02:13:00,52.5,44.5,29.82,SW,225,2.9,5.1,74,0.00,,,0.00,WUHU21623XXSP,2013-01-21 08:13:00,
2013-01-21 02:18:00,52.5,44.5,29.81,SW,225,1.3,2.9,74,0.00,,,0.00,WUHU21623XXSP,2013-01-21 08:18:00,
2013-01-21 02:23:00,52.5,44.5,29.82,South,180,3.1,4.3,74,0.00,,,0.00,WUHU21623XXSP,2013-01-21 08:23:00,
2013-01-21 02:28:00,52.5,44.5,29.82,SW,225,8.5,8.5,74,0.00,,,0.00,WUHU21623XXSP,2013-01-21 08:28:00,
2013-01-21 02:33:00,52.5,44.5,29.82,WSW,247,2.9,8.5,74,0.00,,,0.00,WUHU21623XXSP,2013-01-21 08:33:00,
2013-01-21 02:38:00,52.5,44.5,29.82,WSW,247,3.4,4.0,74,0.00,,,0.00,WUHU21623XXSP,2013-01-21 08:38:00,
2013-01-21 02:43:00,52.7,44.7,29.81,SSW,202,2.7,4.3,74,0.00,,,0.00,WUHU21623XXSP,2013-01-21 08:43:00,
2013-01-21 02:48:00,52.7,44.7,29.82,SW,225,2.9,4.3,74,0.00,,,0.00,WUHU21623XXSP,2013-01-21 08:48:00,
2013-01-21 02:53:00,52.7,44.7,29.82,SSW,202,2.5,4.0,74,0.00,,,0.00,WUHU21623XXSP,2013-01-21 08:53:00,
2013-01-21 02:58:00,52.7,44.7,29.82,SW,225,4.7,5.4,74,0.00,,,0.00,WUHU21623XXSP,2013-01-21 08:58:00,
2013-01-21 03:03:00,52.5,44.5,29.81,SW,225,3.8,5.4,74,0.00,,,0.00,WUHU21623XXSP,2013-01-21 09:03:00,
2013-01-21 03:08:00,52.5,44.5,29.82,SSW,202,8.3,8.3,74,0.00,,,0.00,WUHU21623XXSP,2013-01-21 09:08:00,
2013-01-21 03:13:00,52.5,44.5,29.81,SW,225,0.0,8.3,74,0.00,,,0.00,WUHU21623XXSP,2013-01-21 09:13:00,
2013-01-21 03:19:00,52.5,44.5,29.82,SW,225,1.8,5.1,74,0.00,,,0.00,WUHU21623XXSP,2013-01-21 09:19:00,
2013-01-21 03:24:00,52.3,44.3,29.81,SSW,202,0.0,5.1,74,0.00,,,0.00,WUHU21623XXSP,2013-01-21 09:24:00,
2013-01-21 03:29:00,52.3,44.3,29.82,SSW,202,0.0,0.0,74,0.00,,,0.00,WUHU21623XXSP,2013-01-21 09:29:00,
2013-01-21 03:34:00,52.3,44.3,29.82,SSW,202,0.0,0.0,74,0.00,,,0.00,WUHU21623XXSP,2013-01-21 09:34:00,
2013-01-21 03:39:00,52.3,44.3,29.82,SW,225,0.0,2.5,74,0.00,,,0.00,WUHU21623XXSP,2013-01-21 09:39:00,
2013-01-21 03:44:00,52.2,44.1,29.82,SSE,157,0.0,2.5,74,0.00,,,0.00,WUHU21623XXSP,2013-01-21 09:44:00,
2013-01-21 03:49:00,52.0,44.0,29.82,West,270,0.0,0.0,74,0.00,,,0.00,WUHU21623XXSP,2013-01-21 09:49:00,
2013-01-21 03:54:00,52.0,44.0,29.82,WSW,247,0.0,0.0,74,0.00,,,0.00,WUHU21623XXSP,2013-01-21 09:54:00,
2013-01-21 03:59:00,51.8,43.8,29.82,WSW,247,0.0,0.0,74,0.00,,,0.00,WUHU21623XXSP,2013-01-21 09:59:00,
2013-01-21 04:04:00,51.6,43.6,29.82,SW,225,0.0,2.0,74,0.00,,,0.00,WUHU21623XXSP,2013-01-21 10:04:00,
2013-01-21 04:09:00,51.6,43.6,29.82,SW,225,0.0,2.0,74,0.00,,,0.00,WUHU21623XXSP,2013-01-21 10:09:00,
2013-01-21 04:14:00,51.4,43.4,29.82,South,180,0.0,0.0,74,0.00,,,0.00,WUHU21623XXSP,2013-01-21 10:14:00,
2013-01-21 04:19:00,50.9,42.9,29.81,East,90,0.0,0.0,74,0.00,,,0.00,WUHU21623XXSP,2013-01-21 10:19:00,
2013-01-21 04:24:00,50.7,42.7,29.81,ENE,67,0.0,0.0,74,0.00,,,0.00,WUHU21623XXSP,2013-01-21 10:24:00,
2013-01-21 04:29:00,50.2,42.2,29.82,NNE,22,0.0,0.0,74,0.00,,,0.00,WUHU21623XXSP,2013-01-21 10:29:00,
2013-01-21 04:34:00,49.8,41.8,29.82,NNW,337,0.0,1.3,74,0.00,,,0.00,WUHU21623XXSP,2013-01-21 10:34:00,
2013-01-21 04:39:00,49.8,41.8,29.82,North,0,0.0,1.3,74,0.00,,,0.00,WUHU21623XXSP,2013-01-21 10:39:00,
2013-01-21 04:44:00,49.8,42.2,29.82,North,0,0.0,0.0,75,0.00,,,0.00,WUHU21623XXSP,2013-01-21 10:44:00,
2013-01-21 04:49:00,49.6,42.0,29.82,WSW,247,0.0,0.0,75,0.00,,,0.00,WUHU21623XXSP,2013-01-21 10:49:00,
2013-01-21 04:54:00,49.6,42.0,29.82,SW,225,0.0,0.0,75,0.00,,,0.00,WUHU21623XXSP,2013-01-21 10:54:00,
2013-01-21 04:59:00,49.3,41.6,29.82,SW,225,0.0,0.0,75,0.00,,,0.00,WUHU21623XXSP,2013-01-21 10:59:00,
2013-01-21 05:04:00,49.1,41.1,29.82,West,270,0.0,0.0,74,0.00,,,0.00,WUHU21623XXSP,2013-01-21 11:04:00,
2013-01-21 05:09:00,48.7,40.7,29.82,West,270,0.0,0.0,74,0.00,,,0.00,WUHU21623XXSP,2013-01-21 11:09:00,
2013-01-21 05:14:00,48.6,40.6,29.82,NNW,337,0.0,0.0,74,0.00,,,0.00,WUHU21623XXSP,2013-01-21 11:14:00,
2013-01-21 05:19:00,48.4,40.7,29.82,WNW,292,0.0,0.0,75,0.00,,,0.00,WUHU21623XXSP,2013-01-21 11:19:00,
2013-01-21 05:24:00,48.4,40.7,29.82,WNW,292,0.0,0.0,75,0.00,,,0.00,WUHU21623XXSP,2013-01-21 11:24:00,
2013-01-21 05:29:00,48.0,40.4,29.82,NE,45,0.0,0.0,75,0.00,,,0.00,WUHU21623XXSP,2013-01-21 11:29:00,
2013-01-21 05:34:00,47.7,39.9,29.83,ENE,67,0.0,0.0,74,0.00,,,0.00,WUHU21623XXSP,2013-01-21 11:34:00,
2013-01-21 05:39:00,47.5,39.9,29.83,NE,45,0.0,0.0,75,0.00,,,0.00,WUHU21623XXSP,2013-01-21 11:39:00,
2013-01-21 05:44:00,47.3,39.4,29.82,NE,45,0.0,0.0,74,0.00,,,0.00,WUHU21623XXSP,2013-01-21 11:44:00,
2013-01-21 05:49:00,47.1,39.6,29.82,SW,225,0.0,0.0,75,0.00,,,0.00,WUHU21623XXSP,2013-01-21 11:49:00,
2013-01-21 05:54:00,47.1,39.6,29.83,West,270,0.0,0.0,75,0.00,,,0.00,WUHU21623XXSP,2013-01-21 11:54:00,
2013-01-21 05:59:00,46.9,39.6,29.83,SW,225,0.0,0.0,75,0.00,,,0.00,WUHU21623XXSP,2013-01-21 11:59:00,
2013-01-21 06:04:00,46.8,39.3,29.83,NNE,22,0.0,0.0,75,0.00,,,0.00,WUHU21623XXSP,2013-01-21 12:04:00,
2013-01-21 06:09:00,46.8,39.6,29.83,WNW,292,0.0,0.0,76,0.00,,,0.00,WUHU21623XXSP,2013-01-21 12:09:00,
2013-01-21 06:14:00,46.6,39.4,29.83,West,270,0.0,0.0,76,0.00,,,0.00,WUHU21623XXSP,2013-01-21 12:14:00,
2013-01-21 06:19:00,46.4,39.3,29.83,SSW,202,0.0,1.6,76,0.00,,,0.00,WUHU21623XXSP,2013-01-21 12:19:00,
2013-01-21 06:24:00,46.2,38.8,29.83,SSW,202,0.0,1.6,75,0.00,,,0.00,WUHU21623XXSP,2013-01-21 12:24:00,
2013-01-21 06:29:00,46.0,38.8,29.84,WNW,292,0.0,0.0,75,0.00,,,0.00,WUHU21623XXSP,2013-01-21 12:29:00,
2013-01-21 06:35:00,46.0,38.9,29.83,North,0,0.0,1.1,76,0.00,,,0.00,WUHU21623XXSP,2013-01-21 12:35:00,
2013-01-21 06:40:00,45.7,38.6,29.84,West,270,0.0,1.1,76,0.00,,,0.00,WUHU21623XXSP,2013-01-21 12:40:00,
2013-01-21 06:45:00,45.7,38.6,29.84,North,0,0.0,0.0,76,0.00,,,0.00,WUHU21623XXSP,2013-01-21 12:45:00,
2013-01-21 06:50:00,45.5,38.4,29.85,WNW,292,0.0,0.0,75,0.00,,,0.00,WUHU21623XXSP,2013-01-21 12:50:00,
2013-01-21 06:55:00,45.5,38.0,29.85,NNW,337,0.0,0.0,75,0.00,,,0.00,WUHU21623XXSP,2013-01-21 12:55:00,
2013-01-21 07:00:00,45.3,38.2,29.85,North,0,0.0,2.0,76,0.00,,,0.00,WUHU21623XXSP,2013-01-21 13:00:00,
2013-01-21 07:05:00,45.1,38.0,29.86,NNE,22,1.1,2.0,76,0.00,,,0.00,WUHU21623XXSP,2013-01-21 13:05:00,
2013-01-21 07:10:00,45.1,37.7,29.85,NNE,22,0.0,1.1,75,0.00,,,0.00,WUHU21623XXSP,2013-01-21 13:10:00,
2013-01-21 07:15:00,44.8,37.3,29.86,NNW,337,0.0,0.0,75,0.00,,,0.00,WUHU21623XXSP,2013-01-21 13:15:00,
2013-01-21 07:20:00,44.6,37.1,29.86,NW,315,0.0,0.0,75,0.00,,,0.00,WUHU21623XXSP,2013-01-21 13:20:00,
2013-01-21 07:25:00,44.6,37.1,29.86,NW,315,0.0,0.0,75,0.00,,,0.00,WUHU21623XXSP,2013-01-21 13:25:00,
2013-01-21 07:30:00,44.6,37.5,29.86,SSW,202,2.5,2.5,76,0.00,,,0.00,WUHU21623XXSP,2013-01-21 13:30:00,
2013-01-21 07:35:00,44.6,37.1,29.86,WSW,247,2.2,2.7,75,0.00,,,0.00,WUHU21623XXSP,2013-01-21 13:35:00,
2013-01-21 07:40:00,44.4,37.0,29.86,WSW,247,0.0,2.7,75,0.00,,,0.00,WUHU21623XXSP,2013-01-21 13:40:00,
2013-01-21 07:45:00,44.6,37.5,29.87,WSW,247,0.0,1.3,76,0.00,,,0.00,WUHU21623XXSP,2013-01-21 13:45:00,
2013-01-21 07:50:00,44.8,38.0,29.87,WSW,247,0.0,0.0,77,0.00,,,0.00,WUHU21623XXSP,2013-01-21 13:50:00,
2013-01-21 07:55:00,45.0,38.2,29.87,SW,225,0.0,0.0,77,0.00,,,0.00,WUHU21623XXSP,2013-01-21 13:55:00,
2013-01-21 08:00:00,45.1,38.4,29.87,WSW,247,0.0,0.0,77,0.00,,,0.00,WUHU21623XXSP,2013-01-21 14:00:00,
2013-01-21 08:05:00,45.3,38.9,29.87,SW,225,0.0,0.0,78,0.00,,,0.00,WUHU21623XXSP,2013-01-21 14:05:00,
2013-01-21 08:10:00,45.5,39.1,29.87,WSW,247,0.0,0.0,78,0.00,,,0.00,WUHU21623XXSP,2013-01-21 14:10:00,
2013-01-21 08:15:00,45.7,39.2,29.88,WNW,292,0.0,0.0,78,0.00,,,0.00,WUHU21623XXSP,2013-01-21 14:15:00,
2013-01-21 08:20:00,46.2,39.8,29.87,WNW,292,0.0,0.0,78,0.00,,,0.00,WUHU21623XXSP,2013-01-21 14:20:00,
2013-01-21 08:25:00,46.6,40.5,29.88,SW,225,0.0,0.0,79,0.00,,,0.00,WUHU21623XXSP,2013-01-21 14:25:00,
2013-01-21 08:30:00,47.1,40.9,29.88,WNW,292,1.6,1.6,79,0.00,,,0.00,WUHU21623XXSP,2013-01-21 14:30:00,
2013-01-21 08:35:00,47.3,41.1,29.88,West,270,0.0,1.6,79,0.00,,,0.00,WUHU21623XXSP,2013-01-21 14:35:00,
2013-01-21 08:40:00,47.8,41.6,29.88,West,270,0.0,1.3,79,0.00,,,0.00,WUHU21623XXSP,2013-01-21 14:40:00,
2013-01-21 08:45:00,48.4,42.1,29.88,NW,315,0.0,0.9,79,0.00,,,0.00,WUHU21623XXSP,2013-01-21 14:45:00,
2013-01-21 08:50:00,48.7,42.8,29.89,West,270,0.0,0.0,80,0.00,,,0.00,WUHU21623XXSP,2013-01-21 14:50:00,
2013-01-21 08:55:00,49.3,43.3,29.89,WNW,292,2.9,2.9,80,0.00,,,0.00,WUHU21623XXSP,2013-01-21 14:55:00,
2013-01-21 09:00:00,50.2,44.5,29.89,WNW,292,0.9,2.9,81,0.00,,,0.00,WUHU21623XXSP,2013-01-21 15:00:00,
2013-01-21 09:05:00,50.7,45.1,29.89,NW,315,0.9,2.9,81,0.00,,,0.00,WUHU21623XXSP,2013-01-21 15:05:00,
2013-01-21 09:10:00,51.4,45.8,29.89,NW,315,1.3,1.6,81,0.00,,,0.00,WUHU21623XXSP,2013-01-21 15:10:00,
2013-01-21 09:15:00,52.2,46.2,29.89,NW,315,0.0,3.8,80,0.00,,,0.00,WUHU21623XXSP,2013-01-21 15:15:00,
2013-01-21 09:20:00,52.7,46.8,29.89,NNW,337,0.9,3.8,80,0.00,,,0.00,WUHU21623XXSP,2013-01-21 15:20:00,
2013-01-21 09:25:00,53.2,47.3,29.90,WSW,247,1.3,3.8,80,0.00,,,0.00,WUHU21623XXSP,2013-01-21 15:25:00,
2013-01-21 09:30:00,54.1,47.8,29.90,NW,315,4.0,4.7,79,0.00,,,0.00,WUHU21623XXSP,2013-01-21 15:30:00,
2013-01-21 09:35:00,54.5,48.1,29.90,North,0,3.1,4.7,79,0.00,,,0.00,WUHU21623XXSP,2013-01-21 15:35:00,
2013-01-21 09:40:00,55.0,48.3,29.91,NW,315,3.6,3.6,78,0.00,,,0.00,WUHU21623XXSP,2013-01-21 15:40:00,
2013-01-21 09:45:00,55.6,48.4,29.91,NW,315,5.4,6.7,77,0.00,,,0.00,WUHU21623XXSP,2013-01-21 15:45:00,
2013-01-21 09:50:00,55.9,48.3,29.91,North,0,2.0,6.7,75,0.00,,,0.00,WUHU21623XXSP,2013-01-21 15:50:00,
2013-01-21 09:55:00,56.1,48.3,29.91,NNE,22,10.5,10.5,75,0.00,,,0.00,WUHU21623XXSP,2013-01-21 15:55:00,
2013-01-21 10:00:00,56.8,47.5,29.91,North,0,8.9,11.2,71,0.00,,,0.00,WUHU21623XXSP,2013-01-21 16:00:00,
2013-01-21 10:05:00,57.0,46.9,29.92,NW,315,8.9,14.8,69,0.00,,,0.00,WUHU21623XXSP,2013-01-21 16:05:00,
2013-01-21 10:10:00,57.0,46.5,29.93,North,0,9.2,14.8,68,0.00,,,0.00,WUHU21623XXSP,2013-01-21 16:10:00,
2013-01-21 10:15:00,57.0,46.5,29.92,NNE,22,6.0,10.5,68,0.00,,,0.00,WUHU21623XXSP,2013-01-21 16:15:00,
2013-01-21 10:20:00,57.0,46.1,29.92,NNE,22,12.3,12.3,67,0.00,,,0.00,WUHU21623XXSP,2013-01-21 16:20:00,
2013-01-21 10:25:00,56.8,46.0,29.93,North,0,9.2,12.3,67,0.00,,,0.00,WUHU21623XXSP,2013-01-21 16:25:00,
2013-01-21 10:30:00,56.8,46.0,29.93,NNW,337,6.7,9.2,67,0.00,,,0.00,WUHU21623XXSP,2013-01-21 16:30:00,
2013-01-21 10:35:00,56.5,45.6,29.93,NNW,337,6.9,6.9,67,0.00,,,0.00,WUHU21623XXSP,2013-01-21 16:35:00,
2013-01-21 10:40:00,56.8,46.0,29.93,NNE,22,6.9,7.6,67,0.00,,,0.00,WUHU21623XXSP,2013-01-21 16:40:00,
2013-01-21 10:45:00,56.8,45.6,29.93,NNE,22,9.6,9.6,66,0.00,,,0.00,WUHU21623XXSP,2013-01-21 16:45:00,
2013-01-21 10:50:00,56.8,45.2,29.93,WNW,292,4.0,11.4,65,0.00,,,0.00,WUHU21623XXSP,2013-01-21 16:50:00,
2013-01-21 10:55:00,57.0,44.9,29.93,NNE,22,9.2,11.4,64,0.00,,,0.00,WUHU21623XXSP,2013-01-21 16:55:00,
2013-01-21 11:00:00,57.0,44.5,29.93,NNE,22,11.9,11.9,63,0.00,,,0.00,WUHU21623XXSP,2013-01-21 17:00:00,
2013-01-21 11:05:00,57.0,44.5,29.93,NNW,337,4.0,11.9,63,0.00,,,0.00,WUHU21623XXSP,2013-01-21 17:05:00,
2013-01-21 11:10:00,57.0,44.5,29.93,WNW,292,1.3,10.1,63,0.00,,,0.00,WUHU21623XXSP,2013-01-21 17:10:00,
2013-01-21 11:15:00,57.2,44.3,29.93,NE,45,6.0,10.1,62,0.00,,,0.00,WUHU21623XXSP,2013-01-21 17:15:00,
2013-01-21 11:20:00,57.4,44.1,29.93,North,0,7.6,8.5,61,0.00,,,0.00,WUHU21623XXSP,2013-01-21 17:20:00,
2013-01-21 11:25:00,57.7,44.4,29.93,North,0,7.6,8.5,61,0.00,,,0.00,WUHU21623XXSP,2013-01-21 17:25:00,
2013-01-21 11:30:00,57.9,44.2,29.92,NE,45,10.5,11.6,60,0.00,,,0.00,WUHU21623XXSP,2013-01-21 17:30:00,
2013-01-21 11:35:00,58.1,44.3,29.93,North,0,8.9,11.6,60,0.00,,,0.00,WUHU21623XXSP,2013-01-21 17:35:00,
2013-01-21 11:40:00,58.3,43.9,29.92,North,0,3.8,10.5,59,0.00,,,0.00,WUHU21623XXSP,2013-01-21 17:40:00,
2013-01-21 11:45:00,58.5,44.2,29.92,North,0,3.4,8.5,59,0.00,,,0.00,WUHU21623XXSP,2013-01-21 17:45:00,
2013-01-21 11:50:00,58.6,44.3,29.92,NNW,337,5.1,5.1,59,0.00,,,0.00,WUHU21623XXSP,2013-01-21 17:50:00,
2013-01-21 11:56:00,58.8,44.0,29.92,ENE,67,0.0,7.6,58,0.00,,,0.00,WUHU21623XXSP,2013-01-21 17:56:00,
2013-01-21 12:01:00,59.0,44.2,29.92,NE,45,2.5,7.6,58,0.00,,,0.00,WUHU21623XXSP,2013-01-21 18:01:00,
2013-01-21 12:06:00,59.4,45.0,29.92,NE,45,5.1,7.6,59,0.00,,,0.00,WUHU21623XXSP,2013-01-21 18:06:00,
2013-01-21 12:11:00,59.7,44.9,29.91,NNE,22,5.8,7.6,58,0.00,,,0.00,WUHU21623XXSP,2013-01-21 18:11:00,
2013-01-21 12:16:00,59.9,45.1,29.91,NE,45,6.0,6.0,58,0.00,,,0.00,WUHU21623XXSP,2013-01-21 18:16:00,
2013-01-21 12:21:00,60.1,45.2,29.91,ENE,67,6.3,9.2,58,0.00,,,0.00,WUHU21623XXSP,2013-01-21 18:21:00,
2013-01-21 12:26:00,60.1,45.2,29.90,ENE,67,9.8,9.8,58,0.00,,,0.00,WUHU21623XXSP,2013-01-21 18:26:00,
2013-01-21 12:31:00,60.4,45.6,29.90,ESE,112,2.2,9.8,58,0.00,,,0.00,WUHU21623XXSP,2013-01-21 18:31:00,
2013-01-21 12:36:00,60.4,45.6,29.90,NE,45,0.7,4.7,58,0.00,,,0.00,WUHU21623XXSP,2013-01-21 18:36:00,
2013-01-21 12:41:00,60.6,45.8,29.90,NNE,22,9.6,9.6,57,0.00,,,0.00,WUHU21623XXSP,2013-01-21 18:41:00,
2013-01-21 12:46:00,60.6,45.3,29.90,NW,315,1.8,9.6,57,0.00,,,0.00,WUHU21623XXSP,2013-01-21 18:46:00,
2013-01-21 12:51:00,61.0,45.6,29.90,North,0,5.1,5.1,57,0.00,,,0.00,WUHU21623XXSP,2013-01-21 18:51:00,
2013-01-21 12:56:00,61.2,45.8,29.89,NNE,22,7.6,7.6,57,0.00,,,0.00,WUHU21623XXSP,2013-01-21 18:56:00,
2013-01-21 13:01:00,61.3,46.0,29.89,ESE,112,3.6,7.6,57,0.00,,,0.00,WUHU21623XXSP,2013-01-21 19:01:00,
2013-01-21 13:06:00,61.5,46.1,29.89,East,90,2.5,7.6,57,0.00,,,0.00,WUHU21623XXSP,2013-01-21 19:06:00,
2013-01-21 13:11:00,61.9,46.0,29.89,NE,45,3.8,4.0,56,0.00,,,0.00,WUHU21623XXSP,2013-01-21 19:11:00,
2013-01-21 13:16:00,61.9,46.0,29.88,ENE,67,5.8,5.8,56,0.00,,,0.00,WUHU21623XXSP,2013-01-21 19:16:00,
2013-01-21 13:21:00,62.1,45.5,29.88,NE,45,7.4,7.4,56,0.00,,,0.00,WUHU21623XXSP,2013-01-21 19:21:00,
2013-01-21 13:26:00,62.2,45.8,29.88,NNW,337,3.8,7.4,55,0.00,,,0.00,WUHU21623XXSP,2013-01-21 19:26:00,
2013-01-21 13:31:00,62.2,45.8,29.88,East,90,4.0,5.6,55,0.00,,,0.00,WUHU21623XXSP,2013-01-21 19:31:00,
2013-01-21 13:36:00,62.4,46.0,29.88,ENE,67,4.7,6.0,55,0.00,,,0.00,WUHU21623XXSP,2013-01-21 19:36:00,
2013-01-21 13:41:00,62.4,45.5,29.88,ENE,67,6.9,6.9,54,0.00,,,0.00,WUHU21623XXSP,2013-01-21 19:41:00,
2013-01-21 13:46:00,62.4,45.5,29.88,ENE,67,0.0,6.9,54,0.00,,,0.00,WUHU21623XXSP,2013-01-21 19:46:00,
2013-01-21 13:51:00,62.8,46.3,29.88,NE,45,2.2,4.7,55,0.00,,,0.00,WUHU21623XXSP,2013-01-21 19:51:00,
2013-01-21 13:56:00,63.0,46.0,29.87,NNE,22,8.9,8.9,54,0.00,,,0.00,WUHU21623XXSP,2013-01-21 19:56:00,
2013-01-21 14:01:00,63.1,46.1,29.87,NE,45,8.3,8.9,54,0.00,,,0.00,WUHU21623XXSP,2013-01-21 20:01:00,
2013-01-21 14:06:00,63.3,46.3,29.87,NE,45,3.8,8.3,54,0.00,,,0.00,WUHU21623XXSP,2013-01-21 20:06:00,
2013-01-21 14:11:00,63.5,46.5,29.87,East,90,5.4,6.9,54,0.00,,,0.00,WUHU21623XXSP,2013-01-21 20:11:00,
2013-01-21 14:16:00,63.5,46.5,29.87,NNE,22,3.1,6.9,54,0.00,,,0.00,WUHU21623XXSP,2013-01-21 20:16:00,
2013-01-21 14:21:00,63.7,46.1,29.87,SE,135,0.9,7.6,53,0.00,,,0.00,WUHU21623XXSP,2013-01-21 20:21:00,
2013-01-21 14:26:00,63.7,46.6,29.86,ENE,67,1.1,7.6,54,0.00,,,0.00,WUHU21623XXSP,2013-01-21 20:26:00,
2013-01-21 14:31:00,63.9,46.1,29.86,ESE,112,2.0,2.0,53,0.00,,,0.00,WUHU21623XXSP,2013-01-21 20:31:00,
2013-01-21 14:36:00,64.0,46.5,29.86,NNE,22,5.6,11.4,53,0.00,,,0.00,WUHU21623XXSP,2013-01-21 20:36:00,
2013-01-21 14:41:00,64.0,46.5,29.87,ESE,112,4.5,11.4,53,0.00,,,0.00,WUHU21623XXSP,2013-01-21 20:41:00,
2013-01-21 14:46:00,64.2,46.6,29.87,ENE,67,1.3,5.8,53,0.00,,,0.00,WUHU21623XXSP,2013-01-21 20:46:00,
2013-01-21 14:51:00,64.2,46.1,29.87,NE,45,0.0,5.8,52,0.00,,,0.00,WUHU21623XXSP,2013-01-21 20:51:00,
2013-01-21 14:56:00,64.4,46.3,29.87,NE,45,8.9,8.9,52,0.00,,,0.00,WUHU21623XXSP,2013-01-21 20:56:00,
2013-01-21 15:01:00,64.6,46.5,29.87,North,0,2.5,8.9,52,0.00,,,0.00,WUHU21623XXSP,2013-01-21 21:01:00,
2013-01-21 15:06:00,64.6,46.5,29.87,North,0,6.9,9.8,52,0.00,,,0.00,WUHU21623XXSP,2013-01-21 21:06:00,
2013-01-21 15:11:00,64.8,46.7,29.86,NE,45,3.6,13.0,52,0.00,,,0.00,WUHU21623XXSP,2013-01-21 21:11:00,
2013-01-21 15:16:00,64.8,46.7,29.86,NE,45,3.6,13.0,51,0.00,,,0.00,WUHU21623XXSP,2013-01-21 21:16:00,
2013-01-21 15:21:00,64.8,46.2,29.87,East,90,3.6,3.6,51,0.00,,,0.00,WUHU21623XXSP,2013-01-21 21:21:00,
2013-01-21 15:26:00,64.8,46.7,29.87,ESE,112,5.8,5.8,52,0.00,,,0.00,WUHU21623XXSP,2013-01-21 21:26:00,
2013-01-21 15:31:00,64.9,46.3,29.87,ESE,112,6.3,6.3,51,0.00,,,0.00,WUHU21623XXSP,2013-01-21 21:31:00,
2013-01-21 15:36:00,64.9,46.3,29.86,SSE,157,4.0,6.3,51,0.00,,,0.00,WUHU21623XXSP,2013-01-21 21:36:00,
2013-01-21 15:41:00,64.9,46.7,29.86,SSE,157,4.0,6.3,51,0.00,,,0.00,WUHU21623XXSP,2013-01-21 21:41:00,
2013-01-21 15:46:00,64.9,46.3,29.86,SSE,157,4.0,4.0,51,0.00,,,0.00,WUHU21623XXSP,2013-01-21 21:46:00,
2013-01-21 15:51:00,64.9,46.3,29.86,NNE,22,6.3,6.3,51,0.00,,,0.00,WUHU21623XXSP,2013-01-21 21:51:00,
2013-01-21 15:56:00,64.9,46.3,29.86,ENE,67,6.3,6.3,51,0.00,,,0.00,WUHU21623XXSP,2013-01-21 21:56:00,
2013-01-21 16:01:00,64.8,46.2,29.86,ENE,67,2.0,11.9,51,0.00,,,0.00,WUHU21623XXSP,2013-01-21 22:01:00,
2013-01-21 16:06:00,64.9,46.3,29.86,ENE,67,6.0,11.9,51,0.00,,,0.00,WUHU21623XXSP,2013-01-21 22:06:00,
2013-01-21 16:11:00,64.9,46.3,29.86,ENE,67,4.0,6.0,51,0.00,,,0.00,WUHU21623XXSP,2013-01-21 22:11:00,
2013-01-21 16:16:00,64.8,46.2,29.86,ENE,67,6.7,6.7,51,0.00,,,0.00,WUHU21623XXSP,2013-01-21 22:16:00,
2013-01-21 16:21:00,64.8,46.2,29.86,ENE,67,5.4,6.7,51,0.00,,,0.00,WUHU21623XXSP,2013-01-21 22:21:00,
2013-01-21 16:26:00,64.6,46.0,29.86,NE,45,4.5,5.4,51,0.00,,,0.00,WUHU21623XXSP,2013-01-21 22:26:00,
2013-01-21 16:31:00,64.6,46.0,29.86,NE,45,2.2,4.5,51,0.00,,,0.00,WUHU21623XXSP,2013-01-21 22:31:00,
2013-01-21 16:36:00,64.6,46.5,29.86,ENE,67,4.5,7.4,52,0.00,,,0.00,WUHU21623XXSP,2013-01-21 22:36:00,
2013-01-21 16:41:00,64.6,46.5,29.86,ENE,67,6.3,7.4,52,0.00,,,0.00,WUHU21623XXSP,2013-01-21 22:41:00,
2013-01-21 16:46:00,64.2,46.1,29.86,ENE,67,8.5,8.9,52,0.00,,,0.00,WUHU21623XXSP,2013-01-21 22:46:00,
2013-01-21 16:51:00,64.2,46.1,29.86,North,0,10.5,10.5,52,0.00,,,0.00,WUHU21623XXSP,2013-01-21 22:51:00,
2013-01-21 16:56:00,64.2,46.1,29.86,ESE,112,2.9,10.5,52,0.00,,,0.00,WUHU21623XXSP,2013-01-21 22:56:00,
2013-01-21 17:01:00,64.0,46.0,29.86,ENE,67,8.3,8.3,52,0.00,,,0.00,WUHU21623XXSP,2013-01-21 23:01:00,
2013-01-21 17:06:00,63.7,46.1,29.86,NE,45,4.0,8.3,53,0.00,,,0.00,WUHU21623XXSP,2013-01-21 23:06:00,
2013-01-21 17:12:00,63.7,46.1,29.86,NE,45,4.7,6.0,53,0.00,,,0.00,WUHU21623XXSP,2013-01-21 23:12:00,
2013-01-21 17:17:00,63.3,45.8,29.86,NNE,22,4.3,5.4,53,0.00,,,0.00,WUHU21623XXSP,2013-01-21 23:17:00,
2013-01-21 17:22:00,63.3,45.8,29.86,ENE,67,5.1,5.1,53,0.00,,,0.00,WUHU21623XXSP,2013-01-21 23:22:00,
2013-01-21 17:27:00,63.1,46.1,29.86,NE,45,4.3,6.7,54,0.00,,,0.00,WUHU21623XXSP,2013-01-21 23:27:00,
2013-01-21 17:32:00,62.8,45.3,29.86,ENE,67,6.9,6.9,53,0.00,,,0.00,WUHU21623XXSP,2013-01-21 23:32:00,
2013-01-21 17:37:00,62.6,45.6,29.86,ENE,67,7.6,7.6,54,0.00,,,0.00,WUHU21623XXSP,2013-01-21 23:37:00,
2013-01-21 17:42:00,62.4,45.5,29.86,ENE,67,4.3,7.6,54,0.00,,,0.00,WUHU21623XXSP,2013-01-21 23:42:00,
2013-01-21 17:47:00,61.9,45.5,29.86,NE,45,2.5,6.3,55,0.00,,,0.00,WUHU21623XXSP,2013-01-21 23:47:00,
2013-01-21 17:52:00,61.7,45.3,29.86,ENE,67,4.9,5.4,55,0.00,,,0.00,WUHU21623XXSP,2013-01-21 23:52:00,
2013-01-21 17:57:00,61.5,45.2,29.86,NE,45,3.1,4.9,55,0.00,,,0.00,WUHU21623XXSP,2013-01-21 23:57:00,
2013-01-21 18:02:00,61.0,45.2,29.86,ENE,67,4.3,4.3,56,0.00,,,0.00,WUHU21623XXSP,2013-01-22 00:02:00,
2013-01-21 18:07:00,60.6,44.8,29.86,ENE,67,4.3,4.3,56,0.00,,,0.00,WUHU21623XXSP,2013-01-22 00:07:00,
2013-01-21 18:12:00,60.4,45.1,29.86,ENE,67,4.5,4.5,57,0.00,,,0.00,WUHU21623XXSP,2013-01-22 00:12:00,
2013-01-21 18:17:00,60.1,44.8,29.86,NE,45,2.5,5.1,57,0.00,,,0.00,WUHU21623XXSP,2013-01-22 00:17:00,
2013-01-21 18:22:00,59.7,44.4,29.87,ENE,67,1.6,5.1,57,0.00,,,0.00,WUHU21623XXSP,2013-01-22 00:22:00,
2013-01-21 18:27:00,59.5,44.7,29.87,ENE,67,3.4,3.4,58,0.00,,,0.00,WUHU21623XXSP,2013-01-22 00:27:00,
2013-01-21 18:32:00,59.2,44.4,29.87,ENE,67,3.4,3.4,58,0.00,,,0.00,WUHU21623XXSP,2013-01-22 00:32:00,
2013-01-21 18:37:00,59.2,44.4,29.87,ENE,67,1.8,3.4,58,0.00,,,0.00,WUHU21623XXSP,2013-01-22 00:37:00,
2013-01-21 18:42:00,58.8,44.0,29.87,ENE,67,3.1,3.1,58,0.00,,,0.00,WUHU21623XXSP,2013-01-22 00:42:00,
2013-01-21 18:47:00,58.6,43.9,29.87,ENE,67,1.8,3.1,58,0.00,,,0.00,WUHU21623XXSP,2013-01-22 00:47:00,
2013-01-21 18:52:00,58.5,43.7,29.87,ENE,67,2.5,2.5,58,0.00,,,0.00,WUHU21623XXSP,2013-01-22 00:52:00,
2013-01-21 18:57:00,58.3,44.0,29.87,NE,45,0.9,2.5,59,0.00,,,0.00,WUHU21623XXSP,2013-01-22 00:57:00,
2013-01-21 19:02:00,58.1,43.9,29.88,ENE,67,2.9,2.9,59,0.00,,,0.00,WUHU21623XXSP,2013-01-22 01:02:00,
2013-01-21 19:07:00,57.9,43.7,29.88,ENE,67,1.1,2.9,59,0.00,,,0.00,WUHU21623XXSP,2013-01-22 01:07:00,
2013-01-21 19:12:00,57.7,43.5,29.88,ENE,67,2.2,3.6,59,0.00,,,0.00,WUHU21623XXSP,2013-01-22 01:12:00,
2013-01-21 19:17:00,57.4,43.2,29.88,ENE,67,2.9,3.6,59,0.00,,,0.00,WUHU21623XXSP,2013-01-22 01:17:00,
2013-01-21 19:22:00,57.0,43.3,29.87,NE,45,1.1,3.6,60,0.00,,,0.00,WUHU21623XXSP,2013-01-22 01:22:00,
2013-01-21 19:27:00,57.0,43.3,29.88,ENE,67,2.2,2.9,60,0.00,,,0.00,WUHU21623XXSP,2013-01-22 01:27:00,
2013-01-21 19:32:00,56.8,43.2,29.88,NE,45,0.0,2.5,60,0.00,,,0.00,WUHU21623XXSP,2013-01-22 01:32:00,
2013-01-21 19:37:00,56.8,43.2,29.88,NE,45,1.1,2.5,60,0.00,,,0.00,WUHU21623XXSP,2013-01-22 01:37:00,
2013-01-21 19:42:00,56.5,42.8,29.88,NE,45,0.0,1.3,60,0.00,,,0.00,WUHU21623XXSP,2013-01-22 01:42:00,
2013-01-21 19:47:00,56.5,42.8,29.89,ENE,67,0.0,0.0,60,0.00,,,0.00,WUHU21623XXSP,2013-01-22 01:47:00,
2013-01-21 19:52:00,56.3,43.0,29.89,NNE,22,1.1,1.1,61,0.00,,,0.00,WUHU21623XXSP,2013-01-22 01:52:00,
2013-01-21 19:57:00,55.9,42.8,29.88,NE,45,1.8,1.8,61,0.00,,,0.00,WUHU21623XXSP,2013-01-22 01:57:00,
2013-01-21 20:02:00,55.9,42.7,29.89,NE,45,0.0,1.8,61,0.00,,,0.00,WUHU21623XXSP,2013-01-22 02:02:00,
2013-01-21 20:07:00,55.6,42.5,29.89,NE,45,2.0,2.0,61,0.00,,,0.00,WUHU21623XXSP,2013-01-22 02:07:00,
2013-01-21 20:12:00,55.4,42.1,29.89,ENE,67,0.0,2.0,61,0.00,,,0.00,WUHU21623XXSP,2013-01-22 02:12:00,
2013-01-21 20:17:00,55.2,42.0,29.89,ENE,67,0.0,0.0,61,0.00,,,0.00,WUHU21623XXSP,2013-01-22 02:17:00,
2013-01-21 20:22:00,54.9,41.6,29.89,NE,45,0.0,0.0,61,0.00,,,0.00,WUHU21623XXSP,2013-01-22 02:22:00,
2013-01-21 20:27:00,54.3,41.5,29.90,North,0,0.0,0.0,62,0.00,,,0.00,WUHU21623XXSP,2013-01-22 02:27:00,
2013-01-21 20:32:00,54.3,41.5,29.90,NNE,22,0.0,0.0,62,0.00,,,0.00,WUHU21623XXSP,2013-01-22 02:32:00,
2013-01-21 20:37:00,54.0,41.2,29.90,ENE,67,0.0,0.0,62,0.00,,,0.00,WUHU21623XXSP,2013-01-22 02:37:00,
2013-01-21 20:42:00,53.8,41.5,29.90,ENE,67,0.0,0.0,63,0.00,,,0.00,WUHU21623XXSP,2013-01-22 02:42:00,
2013-01-21 20:47:00,53.4,41.1,29.90,ENE,67,0.0,0.0,63,0.00,,,0.00,WUHU21623XXSP,2013-01-22 02:47:00,
2013-01-21 20:52:00,53.2,40.9,29.90,NE,45,0.0,0.0,63,0.00,,,0.00,WUHU21623XXSP,2013-01-22 02:52:00,
2013-01-21 20:57:00,52.9,40.6,29.90,North,0,0.0,0.0,63,0.00,,,0.00,WUHU21623XXSP,2013-01-22 02:57:00,
2013-01-21 21:02:00,52.7,40.8,29.89,NNE,22,0.0,0.0,64,0.00,,,0.00,WUHU21623XXSP,2013-01-22 03:02:00,
2013-01-21 21:07:00,52.5,40.2,29.90,North,0,0.0,0.0,63,0.00,,,0.00,WUHU21623XXSP,2013-01-22 03:07:00,
2013-01-21 21:12:00,52.2,40.3,29.90,North,0,0.0,0.0,64,0.00,,,0.00,WUHU21623XXSP,2013-01-22 03:12:00,
2013-01-21 21:17:00,52.0,40.1,29.89,West,270,0.0,0.0,64,0.00,,,0.00,WUHU21623XXSP,2013-01-22 03:17:00,
2013-01-21 21:22:00,51.8,40.0,29.90,West,270,0.0,0.0,64,0.00,,,0.00,WUHU21623XXSP,2013-01-22 03:22:00,
2013-01-21 21:27:00,51.6,40.2,29.90,WSW,247,0.0,0.0,65,0.00,,,0.00,WUHU21623XXSP,2013-01-22 03:27:00,
2013-01-21 21:32:00,51.4,40.0,29.89,West,270,0.0,0.0,65,0.00,,,0.00,WUHU21623XXSP,2013-01-22 03:32:00,
2013-01-21 21:37:00,51.1,39.7,29.90,West,270,0.0,0.0,65,0.00,,,0.00,WUHU21623XXSP,2013-01-22 03:37:00,
2013-01-21 21:42:00,50.7,39.7,29.89,West,270,0.0,0.0,66,0.00,,,0.00,WUHU21623XXSP,2013-01-22 03:42:00,
2013-01-21 21:47:00,50.7,39.3,29.89,West,270,0.0,0.0,65,0.00,,,0.00,WUHU21623XXSP,2013-01-22 03:47:00,
2013-01-21 21:52:00,50.5,39.2,29.89,West,270,1.3,1.3,65,0.00,,,0.00,WUHU21623XXSP,2013-01-22 03:52:00,
2013-01-21 21:57:00,50.2,38.8,29.89,West,270,0.0,1.6,65,0.00,,,0.00,WUHU21623XXSP,2013-01-22 03:57:00,
2013-01-21 22:02:00,50.2,39.2,29.90,West,270,0.0,1.6,66,0.00,,,0.00,WUHU21623XXSP,2013-01-22 04:02:00,
2013-01-21 22:07:00,49.8,38.9,29.89,West,270,0.0,0.0,66,0.00,,,0.00,WUHU21623XXSP,2013-01-22 04:07:00,
2013-01-21 22:12:00,49.6,38.7,29.89,West,270,0.0,0.0,66,0.00,,,0.00,WUHU21623XXSP,2013-01-22 04:12:00,
2013-01-21 22:17:00,49.6,38.7,29.89,WSW,247,0.0,0.0,66,0.00,,,0.00,WUHU21623XXSP,2013-01-22 04:17:00,
2013-01-21 22:22:00,49.5,38.5,29.89,WSW,247,0.0,0.0,66,0.00,,,0.00,WUHU21623XXSP,2013-01-22 04:22:00,
2013-01-21 22:27:00,49.3,38.4,29.90,West,270,0.0,0.0,66,0.00,,,0.00,WUHU21623XXSP,2013-01-22 04:27:00,
2013-01-21 22:32:00,49.1,38.2,29.89,West,270,0.0,0.0,67,0.00,,,0.00,WUHU21623XXSP,2013-01-22 04:32:00,
2013-01-21 22:37:00,48.9,38.4,29.89,West,270,0.0,0.0,67,0.00,,,0.00,WUHU21623XXSP,2013-01-22 04:37:00,
2013-01-21 22:42:00,48.7,38.2,29.89,West,270,0.0,0.0,67,0.00,,,0.00,WUHU21623XXSP,2013-01-22 04:42:00,
2013-01-21 22:47:00,48.7,38.2,29.89,WSW,247,0.0,0.0,67,0.00,,,0.00,WUHU21623XXSP,2013-01-22 04:47:00,
2013-01-21 22:52:00,48.6,38.0,29.90,WSW,247,0.0,0.0,67,0.00,,,0.00,WUHU21623XXSP,2013-01-22 04:52:00,
2013-01-21 22:57:00,48.4,37.9,29.89,WSW,247,0.0,0.0,67,0.00,,,0.00,WUHU21623XXSP,2013-01-22 04:57:00,
2013-01-21 23:02:00,48.4,37.9,29.89,West,270,0.0,0.0,67,0.00,,,0.00,WUHU21623XXSP,2013-01-22 05:02:00,
2013-01-21 23:07:00,48.0,37.7,29.89,NW,315,0.0,0.0,67,0.00,,,0.00,WUHU21623XXSP,2013-01-22 05:07:00,
2013-01-21 23:12:00,48.0,37.5,29.89,West,270,0.0,0.0,67,0.00,,,0.00,WUHU21623XXSP,2013-01-22 05:12:00,
2013-01-21 23:17:00,48.0,37.9,29.90,WSW,247,0.0,0.0,68,0.00,,,0.00,WUHU21623XXSP,2013-01-22 05:17:00,
2013-01-21 23:22:00,47.8,37.7,29.90,West,270,0.0,0.0,68,0.00,,,0.00,WUHU21623XXSP,2013-01-22 05:22:00,
2013-01-21 23:28:00,47.7,37.6,29.90,West,270,0.0,0.0,68,0.00,,,0.00,WUHU21623XXSP,2013-01-22 05:28:00,
2013-01-21 23:33:00,47.5,37.4,29.90,WSW,247,0.0,0.0,68,0.00,,,0.00,WUHU21623XXSP,2013-01-22 05:33:00,
2013-01-21 23:38:00,47.3,37.3,29.90,SW,225,0.0,0.0,68,0.00,,,0.00,WUHU21623XXSP,2013-01-22 05:38:00,
2013-01-21 23:43:00,47.3,37.3,29.90,WSW,247,0.0,0.0,68,0.00,,,0.00,WUHU21623XXSP,2013-01-22 05:43:00,
2013-01-21 23:48:00,47.1,37.1,29.91,WSW,247,0.0,0.0,68,0.00,,,0.00,WUHU21623XXSP,2013-01-22 05:48:00,
2013-01-21 23:53:00,46.9,36.9,29.90,WSW,247,0.0,0.0,68,0.00,,,0.00,WUHU21623XXSP,2013-01-22 05:53:00,
2013-01-21 23:58:00,46.9,36.9,29.90,WSW,247,0.0,0.0,68,0.00,,,0.00,WUHU21623XXSP,2013-01-22 05:58:00,